Terminal Aerodrome Forecast
Issued by NWS

Current Version | Previous Version | Text Only | Print | Product List | Glossary On
Versions: 1 2 3 4 5 6 7 8 9 10 11 12 13 14 15 16 17 18 19 20 21 22 23 24 25 26 27 28 29 30 31 32 33 34 35 36
000
FTPA31 PHFO 022300
TAFITO
TAF
PHTO 022334Z 0300/0324 09008KT P6SM -SHRA SCT025 BKN035 OVC040
      TEMPO 0300/0304 2SM +SHRA BR BKN020 OVC040
     FM030800 09008KT P6SM VCSH SCT025 BKN045 BKN100
     FM031900 22006KT P6SM VCSH SCT025 BKN045 BKN100=

USA.gov is the U.S. government's official web portal to all federal, state and local government web resources and services.